Marble, MN (55764)

12:40 AM CST on February 08, 2016 (GMT -0600)
Calumet, MN | | Change Station
CLOSE
Current Station
Personal Weather Station
Location: Bovey, MN
Elevation: 1381 ft
Nearby Weather Stations

Elev 1381 ft 47.32 °N, 93.28 °W | Updated 2 minutes ago

Snow
Snow
8.2 °F
Feels Like -3 °F
N
6.8
Wind Variable Wind from WNW

Today
High -- | Low -- °F
--% Chance of Precip.
Yesterday
High -- | Low -- °F
Precip. -- in
Pressure 29.77 in
Visibility 10.0 miles
Clouds Overcast 1900 ft
Windchill -3 °F
Dew Point 7 °F
Humidity 93%
Rainfall 0.00 in
Snow Depth Not available.
7:29 AM 5:25 PM
Waning Crescent, 0% visible
METAR KGPZ 080635Z AUTO 32015G22KT 10SM OVC019 M13/M17 A2977 RMK AO1
Pressure 29.77 in
Visibility 10.0 miles
Clouds Overcast 1900 ft
Windchill -3 °F
Dew Point 7 °F
Humidity 93%
Rainfall 0.00 in
Snow Depth Not available.
7:29 AM 5:25 PM
Waning Crescent, 0% visible
METAR KGPZ 080635Z AUTO 32015G22KT 10SM OVC019 M13/M17 A2977 RMK AO1

10-Day Weather Forecast

Almanac

Astronomy

Feb. 08, 2016 Rise Set
Actual Time
Civil Twilight
Nautical Twilight
Astronomical Twilight
Moon
Length of Visible Light
Length of Day
Tomorrow will be .
, % of the Moon is Illuminated

Today's Extremes

State Highs State Lows

Community

WunderPhotos

Upload Photos

1,891,395 photos uploaded!

WunderBlog® & News

Nearby

Air Quality

  Air Quality AQ Index Pollutant
Not available.

Snow Depth

Station Depth Elevation

Earthquake Activity

City Distance Mag. Time & Date
Minimum magnitude displayed is 2.5.

Coastal Water Temperatures

Place Temperature

Stations

Nearby Weather Stations

Station Location Temp. Windchill Dew Point Humidity Wind Precip. Elev Updated Type
                   

Watches & Warnings

Winter Weather Advisory
Issued: 10:56 PM CST Feb. 7, 2016 – National Weather Service

... Winter Weather Advisory remains in effect until 6 am CST
Monday...

* locations... International Falls south to Grand Rapids... the
Brainerd lakes and Lake Mille lacs.

* Snow accumulations... additional overnight snow accumulation of 1 to
3 inches.

* Winds... northwest 15 to 25 mph with gusts up to 30 mph.

* Visibilities... reduced to less than one mile at times in snow
and blowing snow. The Minnesota Department of Transportation
advises no travel in northern Cass... western Itasca and western
Koochiching counties.

Precautionary/preparedness actions...

A Winter Weather Advisory for snow and blowing snow means that
visibilities will be limited due to a combination of falling and
blowing snow. Use caution when traveling... especially in open
areas that are more exposed to the wind. Roads may be slick and
hazardous... so allow extra time to reach your destination.